VIPER57 EGXC-EGPH
Flight info
| Callsign | VIPER57 |
|---|---|
| Flight time | 0h 38m |
| Altitude | 40000 |
| Route | EGXC DCT CGY DCT SIVBU Y70 BATLI Y250 GASKO P18 NATEB DCT AGPED AGPE1E EGPH |
| Aircraft | EUFI/M-V/N |
Departure
| Time | 2026-04-21 20:06 |
|---|---|
| Airport | RAF Coningsby (EGXC) |
Arrival
| Time | 2026-04-21 20:45 |
|---|---|
| Airport | Edinburgh Airport (EGPH) |
| Time | Latitude | Longitude | Altitude | Speed | Heading |
|---|---|---|---|---|---|
| 2026-04-21 19:58 | 53.09241 | -0.18222 | 28 ft | 0 kts | 248° |
| 2026-04-21 20:05 | 53.09246 | -0.18363 | 28 ft | 21 kts | 242° |
| 2026-04-21 20:05 | 53.09096 | -0.18482 | 27 ft | 12 kts | 202° |
| 2026-04-21 20:05 | 53.09056 | -0.18513 | 28 ft | 4 kts | 214° |
| 2026-04-21 20:06 | 53.08965 | -0.18538 | 28 ft | 23 kts | 133° |
| 2026-04-21 20:06 | 53.09030 | -0.18081 | 28 ft | 113 kts | 71° |
| 2026-04-21 20:06 | 53.09433 | -0.15731 | 853 ft | 287 kts | 74° |
| 2026-04-21 20:06 | 53.10109 | -0.11665 | 4273 ft | 444 kts | 75° |
| 2026-04-21 20:07 | 53.11077 | -0.05879 | 6519 ft | 520 kts | 73° |
| 2026-04-21 20:07 | 53.12252 | -0.00568 | 8336 ft | 494 kts | 69° |
| 2026-04-21 20:07 | 53.13550 | 0.04767 | 10211 ft | 510 kts | 71° |
| 2026-04-21 20:07 | 53.14691 | 0.10461 | 11975 ft | 528 kts | 69° |
| 2026-04-21 20:08 | 53.16393 | 0.15324 | 13537 ft | 425 kts | 50° |
| 2026-04-21 20:08 | 53.18571 | 0.17853 | 14589 ft | 351 kts | 8° |
| 2026-04-21 20:08 | 53.20050 | 0.15922 | 14845 ft | 282 kts | 278° |
| 2026-04-21 20:08 | 53.20286 | 0.12701 | 15656 ft | 282 kts | 274° |
| 2026-04-21 20:09 | 53.20417 | 0.09409 | 16499 ft | 296 kts | 273° |
| 2026-04-21 20:09 | 53.20832 | 0.05348 | 17570 ft | 419 kts | 290° |
| 2026-04-21 20:09 | 53.22189 | 0.00212 | 19042 ft | 550 kts | 297° |
| 2026-04-21 20:09 | 53.24155 | -0.05857 | 20750 ft | 610 kts | 302° |
| 2026-04-21 20:10 | 53.26600 | -0.11609 | 22542 ft | 622 kts | 308° |
| 2026-04-21 20:10 | 53.29323 | -0.17432 | 24451 ft | 634 kts | 306° |
| 2026-04-21 20:10 | 53.31823 | -0.23405 | 26158 ft | 637 kts | 304° |
| 2026-04-21 20:10 | 53.34390 | -0.29510 | 28019 ft | 644 kts | 306° |
| 2026-04-21 20:11 | 53.37051 | -0.35576 | 30018 ft | 651 kts | 306° |
| 2026-04-21 20:11 | 53.39721 | -0.41841 | 31883 ft | 669 kts | 306° |
| 2026-04-21 20:11 | 53.42448 | -0.48317 | 33793 ft | 692 kts | 306° |
| 2026-04-21 20:11 | 53.45287 | -0.55022 | 35614 ft | 719 kts | 304° |
| 2026-04-21 20:12 | 53.48038 | -0.62248 | 37409 ft | 750 kts | 298° |
| 2026-04-21 20:12 | 53.50705 | -0.69979 | 39253 ft | 779 kts | 307° |
| 2026-04-21 20:12 | 53.53026 | -0.74663 | 40103 ft | 797 kts | 315° |
| 2026-04-21 20:12 | 53.58812 | -0.82574 | 40348 ft | 801 kts | 324° |
| 2026-04-21 20:13 | 53.63240 | -0.88265 | 40373 ft | 802 kts | 320° |
| 2026-04-21 20:13 | 53.71300 | -1.01147 | 40354 ft | 803 kts | 313° |
| 2026-04-21 20:14 | 53.78273 | -1.15862 | 40279 ft | 803 kts | 305° |
| 2026-04-21 20:14 | 53.84043 | -1.32058 | 40305 ft | 803 kts | 297° |
| 2026-04-21 20:15 | 53.88585 | -1.49352 | 40304 ft | 804 kts | 291° |
| 2026-04-21 20:15 | 53.92859 | -1.66859 | 40246 ft | 802 kts | 301° |
| 2026-04-21 20:15 | 53.96696 | -1.73667 | 40247 ft | 801 kts | 319° |
| 2026-04-21 20:16 | 54.00922 | -1.79673 | 40264 ft | 801 kts | 323° |
| 2026-04-21 20:16 | 54.05533 | -1.84779 | 40236 ft | 766 kts | 331° |
| 2026-04-21 20:16 | 54.10079 | -1.88622 | 40263 ft | 693 kts | 336° |
| 2026-04-21 20:16 | 54.14366 | -1.91493 | 40284 ft | 628 kts | 341° |
| 2026-04-21 20:17 | 54.18374 | -1.93466 | 40359 ft | 571 kts | 347° |
| 2026-04-21 20:17 | 54.22165 | -1.94665 | 40418 ft | 547 kts | 353° |
| 2026-04-21 20:17 | 54.25992 | -1.95046 | 40436 ft | 553 kts | 3° |
| 2026-04-21 20:18 | 54.32303 | -1.93012 | 40441 ft | 559 kts | 14° |
| 2026-04-21 20:18 | 54.37116 | -1.89908 | 40424 ft | 562 kts | 31° |
| 2026-04-21 20:18 | 54.40547 | -1.86703 | 40435 ft | 561 kts | 24° |
| 2026-04-21 20:18 | 54.44314 | -1.85089 | 40101 ft | 564 kts | 8° |
| 2026-04-21 20:19 | 54.48165 | -1.84011 | 40110 ft | 552 kts | 5° |
| 2026-04-21 20:19 | 54.52003 | -1.83491 | 40351 ft | 557 kts | 2° |
| 2026-04-21 20:19 | 54.55909 | -1.83250 | 40456 ft | 562 kts | 2° |
| 2026-04-21 20:20 | 54.62386 | -1.81991 | 40474 ft | 562 kts | 7° |
| 2026-04-21 20:20 | 54.70200 | -1.80979 | 40477 ft | 562 kts | 357° |
| 2026-04-21 20:21 | 54.77988 | -1.82517 | 40479 ft | 564 kts | 346° |
| 2026-04-21 20:21 | 54.85621 | -1.85502 | 40501 ft | 565 kts | 350° |
| 2026-04-21 20:22 | 54.93323 | -1.88159 | 40497 ft | 566 kts | 348° |
| 2026-04-21 20:22 | 55.04881 | -1.92281 | 40513 ft | 565 kts | 348° |
| 2026-04-21 20:23 | 55.12338 | -1.96232 | 40453 ft | 569 kts | 328° |
| 2026-04-21 20:23 | 55.15534 | -2.00336 | 39634 ft | 574 kts | 315° |
| 2026-04-21 20:23 | 55.18156 | -2.05424 | 38391 ft | 550 kts | 310° |
| 2026-04-21 20:24 | 55.20490 | -2.10578 | 37129 ft | 527 kts | 308° |
| 2026-04-21 20:24 | 55.22682 | -2.15557 | 35966 ft | 503 kts | 309° |
| 2026-04-21 20:24 | 55.24941 | -2.20048 | 34891 ft | 480 kts | 313° |
| 2026-04-21 20:24 | 55.27162 | -2.24198 | 33754 ft | 465 kts | 312° |
| 2026-04-21 20:25 | 55.29280 | -2.28400 | 32586 ft | 459 kts | 311° |
| 2026-04-21 20:25 | 55.31363 | -2.32632 | 31464 ft | 453 kts | 311° |
| 2026-04-21 20:25 | 55.33435 | -2.36732 | 30353 ft | 446 kts | 313° |
| 2026-04-21 20:25 | 55.35504 | -2.40780 | 29107 ft | 441 kts | 312° |
| 2026-04-21 20:26 | 55.37515 | -2.44771 | 27907 ft | 432 kts | 311° |
| 2026-04-21 20:26 | 55.39497 | -2.48753 | 26761 ft | 430 kts | 311° |
| 2026-04-21 20:26 | 55.41446 | -2.52646 | 25662 ft | 420 kts | 311° |
| 2026-04-21 20:26 | 55.43380 | -2.56495 | 24601 ft | 414 kts | 311° |
| 2026-04-21 20:27 | 55.45324 | -2.60380 | 23460 ft | 423 kts | 311° |
| 2026-04-21 20:27 | 55.47230 | -2.64211 | 22248 ft | 411 kts | 311° |
| 2026-04-21 20:27 | 55.49096 | -2.67962 | 21093 ft | 404 kts | 311° |
| 2026-04-21 20:27 | 55.50913 | -2.71616 | 19987 ft | 398 kts | 311° |
| 2026-04-21 20:28 | 55.52727 | -2.75264 | 18917 ft | 392 kts | 311° |
| 2026-04-21 20:28 | 55.54507 | -2.78855 | 17746 ft | 387 kts | 312° |
| 2026-04-21 20:28 | 55.56262 | -2.82406 | 16817 ft | 375 kts | 312° |
| 2026-04-21 20:28 | 55.57880 | -2.85744 | 16594 ft | 338 kts | 306° |
| 2026-04-21 20:29 | 55.58714 | -2.89291 | 16513 ft | 293 kts | 273° |
| 2026-04-21 20:29 | 55.58464 | -2.92511 | 16498 ft | 242 kts | 242° |
| 2026-04-21 20:29 | 55.57561 | -2.94907 | 16523 ft | 236 kts | 219° |
| 2026-04-21 20:29 | 55.56512 | -2.97176 | 16531 ft | 240 kts | 242° |
| 2026-04-21 20:30 | 55.56005 | -3.00044 | 16138 ft | 252 kts | 261° |
| 2026-04-21 20:30 | 55.55885 | -3.03099 | 15424 ft | 247 kts | 268° |
| 2026-04-21 20:30 | 55.55885 | -3.06118 | 14726 ft | 243 kts | 270° |
| 2026-04-21 20:30 | 55.55940 | -3.09085 | 14033 ft | 240 kts | 272° |
| 2026-04-21 20:31 | 55.56031 | -3.11983 | 13332 ft | 238 kts | 273° |
| 2026-04-21 20:31 | 55.56154 | -3.14884 | 12591 ft | 235 kts | 275° |
| 2026-04-21 20:31 | 55.56445 | -3.17706 | 11893 ft | 233 kts | 288° |
| 2026-04-21 20:31 | 55.56998 | -3.20313 | 11469 ft | 212 kts | 296° |
| 2026-04-21 20:32 | 55.57576 | -3.22504 | 11182 ft | 189 kts | 299° |
| 2026-04-21 20:32 | 55.58206 | -3.24570 | 10763 ft | 189 kts | 303° |
| 2026-04-21 20:32 | 55.58892 | -3.26552 | 10508 ft | 190 kts | 306° |
| 2026-04-21 20:32 | 55.59605 | -3.28493 | 10033 ft | 187 kts | 307° |
| 2026-04-21 20:33 | 55.60345 | -3.30372 | 9491 ft | 185 kts | 311° |
| 2026-04-21 20:33 | 55.61138 | -3.32139 | 8943 ft | 182 kts | 314° |
| 2026-04-21 20:33 | 55.61954 | -3.33834 | 8384 ft | 179 kts | 315° |
| 2026-04-21 20:33 | 55.62762 | -3.35503 | 7790 ft | 177 kts | 315° |
| 2026-04-21 20:34 | 55.63546 | -3.37134 | 7244 ft | 175 kts | 315° |
| 2026-04-21 20:34 | 55.64339 | -3.38774 | 6709 ft | 174 kts | 315° |
| 2026-04-21 20:34 | 55.65120 | -3.40408 | 6076 ft | 173 kts | 315° |
| 2026-04-21 20:34 | 55.65979 | -3.41706 | 5662 ft | 159 kts | 343° |
| 2026-04-21 20:35 | 55.66902 | -3.42813 | 5297 ft | 165 kts | 321° |
| 2026-04-21 20:35 | 55.67627 | -3.44427 | 4987 ft | 169 kts | 306° |
| 2026-04-21 20:35 | 55.68193 | -3.46253 | 4631 ft | 172 kts | 292° |
| 2026-04-21 20:35 | 55.68551 | -3.48410 | 4367 ft | 209 kts | 284° |
| 2026-04-21 20:36 | 55.68859 | -3.50931 | 4042 ft | 208 kts | 282° |
| 2026-04-21 20:36 | 55.69130 | -3.53428 | 3744 ft | 205 kts | 282° |
| 2026-04-21 20:36 | 55.69381 | -3.55913 | 3438 ft | 202 kts | 281° |
| 2026-04-21 20:36 | 55.69636 | -3.58342 | 3128 ft | 203 kts | 282° |
| 2026-04-21 20:37 | 55.69900 | -3.60774 | 2909 ft | 197 kts | 283° |
| 2026-04-21 20:37 | 55.70170 | -3.63193 | 3011 ft | 201 kts | 291° |
| 2026-04-21 20:37 | 55.70832 | -3.65282 | 3036 ft | 194 kts | 323° |
| 2026-04-21 20:37 | 55.71924 | -3.66467 | 3053 ft | 179 kts | 355° |
| 2026-04-21 20:38 | 55.73128 | -3.66614 | 3065 ft | 170 kts | 11° |
| 2026-04-21 20:38 | 55.74285 | -3.66426 | 3065 ft | 168 kts | 15° |
| 2026-04-21 20:38 | 55.75445 | -3.66133 | 3049 ft | 167 kts | 17° |
| 2026-04-21 20:38 | 55.76578 | -3.65789 | 3033 ft | 165 kts | 19° |
| 2026-04-21 20:39 | 55.77715 | -3.65390 | 3028 ft | 166 kts | 20° |
| 2026-04-21 20:39 | 55.78833 | -3.64948 | 3033 ft | 163 kts | 21° |
| 2026-04-21 20:39 | 55.79925 | -3.64421 | 3033 ft | 162 kts | 28° |
| 2026-04-21 20:39 | 55.80950 | -3.63607 | 3038 ft | 160 kts | 34° |
| 2026-04-21 20:40 | 55.81915 | -3.62667 | 3049 ft | 158 kts | 37° |
| 2026-04-21 20:40 | 55.82852 | -3.61641 | 3064 ft | 159 kts | 39° |
| 2026-04-21 20:40 | 55.83756 | -3.60553 | 3063 ft | 157 kts | 41° |
| 2026-04-21 20:40 | 55.84636 | -3.59399 | 3075 ft | 155 kts | 43° |
| 2026-04-21 20:41 | 55.85480 | -3.58207 | 3078 ft | 155 kts | 44° |
| 2026-04-21 20:41 | 55.86315 | -3.57038 | 2838 ft | 153 kts | 42° |
| 2026-04-21 20:41 | 55.87159 | -3.55860 | 2621 ft | 154 kts | 44° |
| 2026-04-21 20:41 | 55.87967 | -3.54606 | 2417 ft | 153 kts | 47° |
| 2026-04-21 20:42 | 55.88714 | -3.53281 | 2210 ft | 151 kts | 50° |
| 2026-04-21 20:42 | 55.89410 | -3.51899 | 1983 ft | 149 kts | 53° |
| 2026-04-21 20:42 | 55.90072 | -3.50488 | 1789 ft | 148 kts | 53° |
| 2026-04-21 20:42 | 55.90724 | -3.49054 | 1587 ft | 141 kts | 55° |
| 2026-04-21 20:43 | 55.91318 | -3.47701 | 1405 ft | 142 kts | 55° |
| 2026-04-21 20:43 | 55.91904 | -3.46276 | 1212 ft | 144 kts | 58° |
| 2026-04-21 20:43 | 55.92449 | -3.44801 | 1002 ft | 144 kts | 59° |
| 2026-04-21 20:43 | 55.92969 | -3.43283 | 812 ft | 146 kts | 59° |
| 2026-04-21 20:44 | 55.93473 | -3.41763 | 587 ft | 144 kts | 59° |
| 2026-04-21 20:44 | 55.93982 | -3.40259 | 377 ft | 138 kts | 60° |
| 2026-04-21 20:44 | 55.94493 | -3.38755 | 156 ft | 143 kts | 59° |
| 2026-04-21 20:44 | 55.94919 | -3.37450 | 106 ft | 99 kts | 58° |
| 2026-04-21 20:45 | 55.95137 | -3.36838 | 107 ft | 43 kts | 58° |
| 2026-04-21 20:45 | 55.95257 | -3.36439 | 100 ft | 24 kts | 100° |
| 2026-04-21 20:45 | 55.95219 | -3.36378 | 100 ft | 0 kts | 147° |
| 2026-04-21 20:46 | 55.95205 | -3.36363 | 101 ft | 3 kts | 149° |
| 2026-04-21 20:46 | 55.95193 | -3.36350 | 101 ft | 5 kts | 149° |
| 2026-04-21 20:47 | 55.95149 | -3.36278 | 102 ft | 12 kts | 120° |
| 2026-04-21 20:47 | 55.95112 | -3.36100 | 103 ft | 18 kts | 109° |
| 2026-04-21 20:47 | 55.95066 | -3.35904 | 105 ft | 12 kts | 118° |
| 2026-04-21 20:47 | 55.95051 | -3.35847 | 104 ft | 6 kts | 107° |
| 2026-04-21 20:48 | 55.95057 | -3.35705 | 106 ft | 15 kts | 106° |
| 2026-04-21 20:48 | 55.95016 | -3.35572 | 108 ft | 10 kts | 118° |
| 2026-04-21 20:48 | 55.94966 | -3.35409 | 109 ft | 27 kts | 118° |
| 2026-04-21 20:48 | 55.94878 | -3.35124 | 109 ft | 23 kts | 118° |
| 2026-04-21 20:49 | 55.94833 | -3.34945 | 111 ft | 12 kts | 92° |
| 2026-04-21 20:49 | 55.94887 | -3.34855 | 109 ft | 13 kts | 29° |
| 2026-04-21 20:49 | 55.94952 | -3.34789 | 108 ft | 6 kts | 23° |
| 2026-04-21 20:49 | 55.94979 | -3.34767 | 108 ft | 2 kts | 27° |
| 2026-04-21 20:50 | 55.94999 | -3.34749 | 109 ft | 0 kts | 26° |